West Yarmouth, MA (02673)

8:04 AM EST on January 28, 2015 (GMT -0500)
APRSWXNET Yarmouth MA US | Change Station
CLOSE
Current Station
Personal Weather Station
Location: West Yarmouth, MA
Elevation: 39 ft
Nearby Weather Stations

Elev 39 ft 41.67 °N, 70.25 °W | Updated 34 minutes ago

Light Snow
Light Snow Mist
15 °F
Feels Like 3 °F
N
10
Wind Variable Wind from NW
Gusts 19.0 mph

Today
High -- | Low -- °F
--% Chance of Precip.
Yesterday
High -- | Low -- °F
Precip. -- in
6:57 AM 4:51 PM
Waxing Gibbous, 64% visible
Pressure 29.83 in
Visibility 7.0 miles
Clouds Mostly Cloudy 2200 ft
Overcast 4400 ft
Windchill 3 °F
Dew Point 13 °F
Humidity 93%
Rainfall 0.00 in
Snow Depth Not available.
UV 0 out of 12
Pollen .10 out of 12
Air Quality Not available.
Flu Activity Not available.
METAR KHYA 281256Z 33010G19KT 7SM -SN BR BKN022 OVC044 M09/M12 A2982 RMK AO2 SLP101 P0000 T10941122 $

More Conditions Fewer Conditions

Pressure 29.83 in
Visibility 7.0 miles
Clouds Mostly Cloudy 2200 ft
Overcast 4400 ft
Windchill 3 °F
Dew Point 13 °F
Humidity 93%
Rainfall 0.00 in
Snow Depth Not available.
UV 0 out of 12
Pollen .10 out of 12
Air Quality Not available.
Flu Activity Not available.
METAR KHYA 281256Z 33010G19KT 7SM -SN BR BKN022 OVC044 M09/M12 A2982 RMK AO2 SLP101 P0000 T10941122 $

More Conditions Fewer Conditions

10-Day Weather Forecast

Almanac

Astronomy

Jan. 28, 2015 Rise Set
Actual Time
Civil Twilight
Nautical Twilight
Astronomical Twilight
Moon
Length of Visible Light
Length of Day
Tomorrow will be .
, % of the Moon is Illuminated

Today's Extremes

State Highs State Lows

Community

WunderPhotos

Upload Photos

1,791,134 photos uploaded!

WunderBlogs® & News

Nearby

Air Quality

  Air Quality AQ Index Pollutant
Not available.

Snow Depth

Station Depth Elevation

Earthquake Activity

City Distance Mag. Time & Date
Minimum magnitude displayed is 2.5.

Coastal Water Temperatures

Place Temperature

Nearby Weather Stations